Terminal Aerodrome Forecast
Issued by NWS

Home | Current Version | Previous Version | Text Only | Print | Product List | Glossary On
Versions: 1 2 3 4 5 6 7 8 9 10 11 12 13 14 15 16 17
000
FTUS42 KMLB 211200 AAA
TAFSFB
TAF AMD
KSFB 211209Z 2112/2212 30005KT P6SM SCT005
      TEMPO 2112/2113 1/4SM FG BKN005
     FM211400 36004KT P6SM FEW025 SCT250
     FM211800 06005KT P6SM VCSH SCT030 BKN120
     FM220100 18003KT P6SM FEW035 BKN120=

USA.gov is the U.S. government's official web portal to all federal, state and local government web resources and services.